Time;durP1;ratioP1;P1;durP2;ratioP2;P2;SDS_P1;SDS_P2;PMS_P1;PMS_P2;Temp;Humidity;BMP_temperature;BMP_pressure;BME280_temperature;BME280_humidity;BME280_pressure;Samples;Min_cycle;Max_cycle;Signal;HPM_P1;HPM_P2
2024/01/02 00:00:16;;;;;;;13.98;3.75;;;;;;;4.61;87.15;97855.47;4983849;28;20109;-81
2024/01/02 00:02:41;;;;;;;14.45;4.03;;;;;;;4.66;87.16;97838.94;4968848;28;21265;-81
2024/01/02 00:05:07;;;;;;;17.15;4.25;;;;;;;4.65;86.86;97846.06;4970962;28;20022;-80
2024/01/02 00:07:33;;;;;;;15.05;4.07;;;;;;;4.63;87.37;97848.13;4969847;28;20489;-80
2024/01/02 00:09:58;;;;;;;17.17;3.40;;;;;;;4.59;87.37;97838.28;4986939;28;20034;-81
2024/01/02 00:12:23;;;;;;;22.42;4.75;;;;;;;4.60;87.73;97842.50;4953510;28;20492;-81
2024/01/02 00:14:51;;;;;;;21.23;5.57;;;;;;;4.56;88.15;97815.78;4967652;28;20466;-81
2024/01/02 00:17:17;;;;;;;17.73;4.53;;;;;;;4.66;87.14;97831.00;4983049;28;20026;-81
2024/01/02 00:19:42;;;;;;;18.75;4.07;;;;;;;4.70;87.57;97840.06;4961310;28;20101;-81
2024/01/02 00:22:08;;;;;;;15.93;3.78;;;;;;;4.59;87.57;97817.16;4984405;28;20042;-81
2024/01/02 00:24:33;;;;;;;24.52;3.75;;;;;;;4.67;87.67;97811.47;4970453;28;20386;-81
2024/01/02 00:26:58;;;;;;;29.58;4.07;;;;;;;4.67;87.39;97812.28;4985795;28;20034;-81
2024/01/02 00:29:24;;;;;;;16.13;4.30;;;;;;;4.81;87.44;97810.94;4969144;28;20030;-81
2024/01/02 00:31:49;;;;;;;21.25;4.07;;;;;;;4.75;87.28;97805.81;4971207;28;20474;-81
2024/01/02 00:34:15;;;;;;;20.17;4.53;;;;;;;4.83;86.62;97803.56;4983523;28;20058;-81
2024/01/02 00:36:40;;;;;;;23.30;5.57;;;;;;;4.70;87.57;97773.97;4986690;28;20030;-81
2024/01/02 00:39:06;;;;;;;20.27;4.80;;;;;;;4.98;86.86;97795.13;4991781;28;20060;-81
2024/01/02 00:41:32;;;;;;;19.02;3.72;;;;;;;5.00;86.80;97790.41;4990236;28;20029;-81
2024/01/02 00:43:58;;;;;;;17.67;4.88;;;;;;;4.79;87.43;97777.84;4968737;28;20027;-81
2024/01/02 00:46:23;;;;;;;20.63;3.85;;;;;;;4.90;87.65;97777.81;4988849;28;20038;-82
2024/01/02 00:48:49;;;;;;;13.85;3.90;;;;;;;4.98;87.03;97782.69;4987937;28;20066;-82
2024/01/02 00:51:14;;;;;;;13.82;3.55;;;;;;;4.86;87.16;97773.22;4976470;28;20022;-81
2024/01/02 00:53:40;;;;;;;15.85;4.07;;;;;;;4.83;88.26;97782.44;4973149;28;20133;-81
2024/01/02 00:56:05;;;;;;;19.27;4.15;;;;;;;5.01;87.53;97771.66;4985967;28;20042;-82
2024/01/02 00:58:31;;;;;;;15.02;4.03;;;;;;;4.89;88.20;97759.53;4984775;28;20468;-81
2024/01/02 01:00:56;;;;;;;9.38;2.95;;;;;;;5.07;87.45;97746.88;4990580;28;20053;-82
2024/01/02 01:03:21;;;;;;;14.00;3.22;;;;;;;5.09;87.79;97741.34;4973215;28;20030;-82
2024/01/02 01:05:47;;;;;;;14.82;4.00;;;;;;;5.07;86.81;97741.59;4984668;28;20050;-82
2024/01/02 01:08:12;;;;;;;19.20;3.33;;;;;;;5.01;87.61;97736.47;4990031;28;20128;-82
2024/01/02 01:10:37;;;;;;;16.65;3.50;;;;;;;5.03;87.81;97740.47;4987751;28;20045;-82
2024/01/02 01:13:03;;;;;;;15.50;4.10;;;;;;;5.11;87.38;97729.50;4990325;28;20034;-82
2024/01/02 01:15:28;;;;;;;14.98;3.65;;;;;;;5.02;88.01;97732.81;4955508;28;20386;-82
2024/01/02 01:17:54;;;;;;;15.93;3.47;;;;;;;4.70;88.92;97718.50;4988934;28;20065;-82
2024/01/02 01:20:19;;;;;;;15.63;3.90;;;;;;;5.03;88.03;97710.59;4984687;28;20049;-82
2024/01/02 01:22:44;;;;;;;16.85;3.58;;;;;;;4.92;88.12;97695.59;4985997;28;20054;-81
2024/01/02 01:25:10;;;;;;;12.25;3.97;;;;;;;5.23;87.60;97713.53;4956988;28;20454;-81
2024/01/02 01:27:35;;;;;;;14.77;2.95;;;;;;;5.17;87.45;97711.88;4973206;28;20030;-82
2024/01/02 01:30:01;;;;;;;13.70;3.80;;;;;;;5.21;87.61;97695.28;4990953;28;20088;-81
2024/01/02 01:32:28;;;;;;;16.60;3.42;;;;;;;5.22;87.16;97698.75;4967276;28;20042;-82
2024/01/02 01:34:53;;;;;;;15.30;3.28;;;;;;;5.09;87.43;97696.41;4986459;28;20109;-82
2024/01/02 01:37:19;;;;;;;12.68;2.95;;;;;;;5.17;87.39;97677.50;4986901;28;20034;-82
2024/01/02 01:39:44;;;;;;;13.73;3.17;;;;;;;5.15;87.35;97687.50;4989016;28;20038;-82
2024/01/02 01:42:10;;;;;;;12.50;3.30;;;;;;;5.18;88.14;97677.25;4990981;28;20030;-82
2024/01/02 01:44:35;;;;;;;13.20;3.00;;;;;;;5.18;87.74;97677.25;4976734;28;20030;-82
2024/01/02 01:47:04;;;;;;;15.85;3.40;;;;;;;5.15;88.47;97679.59;4972293;28;20034;-82
2024/01/02 01:49:31;;;;;;;10.73;2.78;;;;;;;5.32;87.13;97678.50;4971189;28;20049;-82
2024/01/02 01:51:57;;;;;;;12.32;3.17;;;;;;;5.09;88.05;97662.00;4988745;28;20034;-82
2024/01/02 01:54:23;;;;;;;15.40;3.75;;;;;;;5.16;88.49;97660.81;4986555;28;20042;-82
2024/01/02 01:56:50;;;;;;;11.25;3.97;;;;;;;4.96;88.34;97641.19;4981886;28;20046;-82
2024/01/02 01:59:16;;;;;;;16.55;3.42;;;;;;;5.06;88.52;97647.47;4989510;28;20105;-81
2024/01/02 02:01:44;;;;;;;10.70;3.08;;;;;;;5.08;88.60;97663.06;4975946;28;20121;-82
2024/01/02 02:04:09;;;;;;;11.82;3.08;;;;;;;4.85;89.55;97642.13;4984613;28;20033;-81
2024/01/02 02:06:34;;;;;;;16.42;4.53;;;;;;;4.95;90.45;97643.06;4953832;28;20482;-82
2024/01/02 02:09:00;;;;;;;15.30;3.70;;;;;;;4.89;89.53;97630.78;4985355;28;20384;-82
2024/01/02 02:11:26;;;;;;;18.77;3.47;;;;;;;5.15;89.57;97630.13;4984867;28;20092;-82
2024/01/02 02:13:51;;;;;;;14.77;4.22;;;;;;;4.94;89.87;97616.84;4985769;28;20030;-82
2024/01/02 02:16:17;;;;;;;8.98;3.10;;;;;;;4.94;90.29;97617.66;4987370;28;20034;-82
2024/01/02 02:18:42;;;;;;;10.70;3.22;;;;;;;5.21;88.42;97613.28;4965923;28;20026;-83
2024/01/02 02:21:08;;;;;;;16.27;3.83;;;;;;;5.09;89.92;97609.13;4987282;28;20073;-83
2024/01/02 02:23:33;;;;;;;8.10;2.83;;;;;;;5.11;89.77;97596.50;4990834;28;20048;-83
2024/01/02 02:25:59;;;;;;;10.90;3.88;;;;;;;5.09;89.38;97586.13;4989953;28;20678;-83
2024/01/02 02:28:24;;;;;;;9.20;3.28;;;;;;;4.80;90.04;97568.81;4989252;28;20041;-82
2024/01/02 02:30:49;;;;;;;7.13;2.97;;;;;;;4.98;90.23;97573.03;4988995;28;20038;-81
2024/01/02 02:33:15;;;;;;;12.13;3.45;;;;;;;5.09;89.92;97561.53;4988483;28;20026;-82
2024/01/02 02:35:40;;;;;;;11.80;3.80;;;;;;;5.09;89.65;97564.97;4967322;28;20112;-81
2024/01/02 02:38:05;;;;;;;17.27;4.82;;;;;;;4.92;90.09;97555.50;4988380;28;20034;-82
2024/01/02 02:40:31;;;;;;;14.75;3.33;;;;;;;4.91;90.72;97551.25;4987443;28;20034;-82
2024/01/02 02:42:57;;;;;;;9.73;3.15;;;;;;;4.93;91.41;97541.25;4984549;28;20077;-82
2024/01/02 02:45:22;;;;;;;12.00;3.58;;;;;;;4.98;91.67;97533.38;4973666;28;20027;-82
2024/01/02 02:47:47;;;;;;;10.70;3.40;;;;;;;4.88;91.09;97541.16;4980295;28;20076;-81
2024/01/02 02:50:13;;;;;;;8.77;2.88;;;;;;;4.89;91.60;97513.69;4988652;28;20505;-82
2024/01/02 02:52:38;;;;;;;10.95;2.95;;;;;;;4.92;91.02;97503.41;4984135;28;20034;-82
2024/01/02 02:55:04;;;;;;;15.82;3.50;;;;;;;4.97;90.88;97506.13;4991021;28;20030;-83
2024/01/02 02:57:29;;;;;;;11.65;3.25;;;;;;;4.93;90.82;97491.00;4972297;28;20513;-83
2024/01/02 02:59:54;;;;;;;5.57;2.88;;;;;;;4.91;91.61;97491.25;4970014;28;20033;-83
2024/01/02 03:02:20;;;;;;;16.35;4.13;;;;;;;4.71;91.75;97474.34;4989251;28;20037;-83
2024/01/02 03:04:45;;;;;;;10.68;3.30;;;;;;;4.55;93.73;97463.56;4987090;28;20121;-82
2024/01/02 03:07:11;;;;;;;6.05;2.72;;;;;;;4.94;91.96;97463.50;4986147;28;20133;-82
2024/01/02 03:09:36;;;;;;;6.63;3.17;;;;;;;5.10;91.07;97441.50;4967481;28;20042;-82
2024/01/02 03:12:02;;;;;;;7.38;2.88;;;;;;;4.96;90.87;97438.44;4981134;28;20038;-82
2024/01/02 03:14:27;;;;;;;10.77;3.00;;;;;;;5.03;91.86;97448.81;4985628;28;20121;-82
2024/01/02 03:16:53;;;;;;;13.35;2.83;;;;;;;4.98;91.74;97430.28;4984271;28;20169;-82
2024/01/02 03:19:19;;;;;;;8.35;2.60;;;;;;;4.97;90.87;97424.19;4984021;28;20042;-82
2024/01/02 03:21:44;;;;;;;10.15;3.03;;;;;;;4.99;90.61;97418.63;4951735;28;20114;-82
2024/01/02 03:24:09;;;;;;;5.47;2.92;;;;;;;4.77;91.56;97404.63;4984508;28;20038;-82
2024/01/02 03:26:35;;;;;;;12.88;2.78;;;;;;;4.96;91.96;97400.63;4988490;28;20027;-82
2024/01/02 03:29:00;;;;;;;7.22;2.38;;;;;;;5.12;90.83;97400.53;4983732;28;20757;-82
2024/01/02 03:31:25;;;;;;;10.52;2.70;;;;;;;4.84;92.75;97405.25;4978023;28;20615;-82
2024/01/02 03:33:51;;;;;;;5.53;2.13;;;;;;;4.78;92.58;97398.31;4983065;28;20092;-82
2024/01/02 03:36:18;;;;;;;3.70;2.35;;;;;;;4.94;92.07;97392.94;4985299;28;20169;-82
2024/01/02 03:38:48;;;;;;;5.53;2.63;;;;;;;5.10;91.78;97400.00;4969275;28;20033;-82
2024/01/02 03:41:13;;;;;;;4.78;2.58;;;;;;;4.92;92.47;97388.94;4961639;28;20579;-81
2024/01/02 03:43:39;;;;;;;10.13;2.80;;;;;;;5.10;92.09;97384.13;4966256;28;20230;-81
2024/01/02 03:46:05;;;;;;;7.80;2.33;;;;;;;4.70;92.42;97393.44;4986497;28;20036;-81
2024/01/02 03:48:30;;;;;;;4.85;2.30;;;;;;;4.91;92.85;97374.94;4983760;28;20100;-82
2024/01/02 03:50:56;;;;;;;5.10;2.13;;;;;;;4.90;92.40;97361.97;4958373;28;20030;-81
2024/01/02 03:53:21;;;;;;;6.05;1.90;;;;;;;4.86;92.80;97355.56;4990019;28;20042;-82
2024/01/02 03:55:47;;;;;;;8.68;2.65;;;;;;;5.08;92.01;97358.97;4971653;28;20030;-82
2024/01/02 03:58:12;;;;;;;6.80;1.73;;;;;;;4.93;92.10;97346.41;4973121;28;20100;-82
2024/01/02 04:00:39;;;;;;;3.63;1.65;;;;;;;5.01;92.17;97338.03;4990420;28;20034;-82
2024/01/02 04:03:05;;;;;;;2.45;2.00;;;;;;;4.78;92.10;97311.91;4992984;28;20026;-82
2024/01/02 04:05:30;;;;;;;5.25;2.25;;;;;;;4.84;93.52;97321.47;4984923;28;20458;-81
2024/01/02 04:07:56;;;;;;;6.72;2.00;;;;;;;4.91;92.88;97331.84;4976889;28;20153;-82
2024/01/02 04:10:21;;;;;;;5.95;2.25;;;;;;;4.96;92.36;97318.66;4990240;28;20027;-82
2024/01/02 04:12:46;;;;;;;2.40;1.85;;;;;;;4.84;92.82;97302.16;4990298;28;20031;-82
2024/01/02 04:15:12;;;;;;;6.13;2.08;;;;;;;4.80;93.39;97293.94;4954546;28;20114;-82
2024/01/02 04:17:37;;;;;;;6.20;2.08;;;;;;;4.76;93.24;97270.91;4974286;28;20124;-82
2024/01/02 04:20:03;;;;;;;4.55;1.52;;;;;;;4.80;93.75;97264.06;4992286;28;20034;-82
2024/01/02 04:22:28;;;;;;;5.53;1.83;;;;;;;4.80;94.36;97266.72;4990238;28;20076;-82
2024/01/02 04:24:53;;;;;;;5.68;1.52;;;;;;;5.01;92.64;97237.56;4991252;28;20034;-82
2024/01/02 04:27:19;;;;;;;9.18;2.15;;;;;;;4.93;92.39;97251.25;4986010;28;20037;-82
2024/01/02 04:29:44;;;;;;;3.08;1.85;;;;;;;4.86;93.24;97234.00;4975079;28;20035;-82
2024/01/02 04:32:10;;;;;;;7.18;2.28;;;;;;;4.92;92.88;97239.06;4990016;28;20073;-82
2024/01/02 04:34:35;;;;;;;5.38;2.05;;;;;;;4.85;92.56;97222.63;4987066;28;20142;-83
2024/01/02 04:37:01;;;;;;;5.05;2.15;;;;;;;4.95;93.06;97224.56;4993873;28;20401;-82
2024/01/02 04:39:26;;;;;;;4.40;1.50;;;;;;;4.95;93.71;97217.44;4956035;28;20038;-82
2024/01/02 04:41:52;;;;;;;3.80;1.58;;;;;;;4.83;94.02;97194.84;4992993;28;20022;-82
2024/01/02 04:44:18;;;;;;;4.20;1.50;;;;;;;4.77;93.26;97174.72;4973619;28;20038;-83
2024/01/02 04:46:43;;;;;;;3.05;1.85;;;;;;;4.95;93.46;97192.84;4976156;28;20026;-82
2024/01/02 04:49:08;;;;;;;4.18;1.40;;;;;;;4.96;93.69;97189.13;4990756;28;20096;-82
2024/01/02 04:51:34;;;;;;;2.30;1.70;;;;;;;4.92;93.40;97165.06;4979071;28;20034;-82
2024/01/02 04:53:59;;;;;;;4.05;1.45;;;;;;;4.95;93.53;97161.09;4970170;28;20092;-81
2024/01/02 04:56:25;;;;;;;1.98;1.20;;;;;;;5.10;92.45;97151.44;4967826;28;20118;-81
2024/01/02 04:58:50;;;;;;;4.15;1.20;;;;;;;5.17;92.62;97154.66;4991476;28;20057;-81
2024/01/02 05:01:16;;;;;;;3.53;1.40;;;;;;;4.90;92.15;97137.28;4989318;28;20022;-82
2024/01/02 05:03:41;;;;;;;3.00;1.30;;;;;;;5.01;92.68;97141.59;4989322;28;20022;-82
2024/01/02 05:06:07;;;;;;;5.47;1.70;;;;;;;5.01;92.37;97152.97;4970751;28;20085;-82
2024/01/02 05:08:34;;;;;;;1.60;1.35;;;;;;;4.73;93.89;97129.50;4988123;28;20490;-82
2024/01/02 05:10:59;;;;;;;1.10;0.95;;;;;;;4.87;93.07;97125.34;4995740;28;20117;-82
2024/01/02 05:13:25;;;;;;;1.73;1.00;;;;;;;4.72;93.32;97132.41;4989100;28;20118;-82
2024/01/02 05:15:50;;;;;;;2.08;1.25;;;;;;;4.75;93.56;97132.69;4974616;28;20501;-82
2024/01/02 05:18:16;;;;;;;2.60;1.55;;;;;;;4.98;92.88;97123.59;4974701;28;20031;-82
2024/01/02 05:20:42;;;;;;;1.05;0.60;;;;;;;5.01;92.86;97125.72;4974049;28;20026;-82
2024/01/02 05:23:07;;;;;;;1.55;0.90;;;;;;;4.92;92.57;97121.94;4951074;28;20030;-82
2024/01/02 05:25:32;;;;;;;1.80;0.90;;;;;;;4.81;93.51;97115.81;4989512;28;20092;-82
2024/01/02 05:27:58;;;;;;;1.58;0.93;;;;;;;4.82;94.25;97101.56;4975481;28;20072;-83
2024/01/02 05:30:23;;;;;;;1.83;0.95;;;;;;;4.76;93.15;97091.22;4989662;28;20040;-82
2024/01/02 05:32:49;;;;;;;1.50;0.90;;;;;;;4.97;93.27;97080.50;4993233;28;20037;-82
2024/01/02 05:35:14;;;;;;;2.15;0.90;;;;;;;4.95;92.78;97079.16;4974126;28;20397;-82
2024/01/02 05:37:39;;;;;;;1.60;1.10;;;;;;;5.04;92.86;97089.00;4972415;28;20124;-82
2024/01/02 05:40:05;;;;;;;2.92;0.80;;;;;;;4.89;92.88;97073.03;4987278;28;20034;-82
2024/01/02 05:42:31;;;;;;;2.20;1.35;;;;;;;4.78;93.96;97066.13;4988647;28;20026;-82
2024/01/02 05:44:56;;;;;;;1.10;0.95;;;;;;;4.77;92.83;97069.00;4986399;28;20100;-82
2024/01/02 05:47:21;;;;;;;0.98;0.85;;;;;;;4.88;93.56;97074.09;4969875;28;20382;-82
2024/01/02 05:49:47;;;;;;;0.90;0.80;;;;;;;4.89;92.79;97057.16;4970670;28;20056;-83
2024/01/02 05:52:12;;;;;;;2.38;0.80;;;;;;;4.71;93.97;97072.66;4995234;28;20084;-82
2024/01/02 05:54:38;;;;;;;1.42;0.93;;;;;;;4.90;94.16;97064.06;4987684;28;20062;-82
2024/01/02 05:57:03;;;;;;;1.23;0.95;;;;;;;4.93;92.71;97076.78;4991542;28;20041;-83
2024/01/02 05:59:29;;;;;;;2.17;1.20;;;;;;;4.84;93.34;97057.16;4975957;28;20492;-83
2024/01/02 06:01:54;;;;;;;2.67;0.90;;;;;;;4.83;93.23;97065.31;4961115;28;20364;-83
2024/01/02 06:04:19;;;;;;;9.32;2.83;;;;;;;4.64;93.52;97069.44;4975924;28;20030;-83
2024/01/02 06:06:45;;;;;;;2.88;1.10;;;;;;;4.70;93.59;97058.66;4975608;28;20034;-82
2024/01/02 06:09:10;;;;;;;0.65;0.60;;;;;;;4.63;93.09;97036.94;4988928;28;20030;-82
2024/01/02 06:11:35;;;;;;;1.17;0.70;;;;;;;4.57;93.75;97040.59;4983878;28;20031;-83
2024/01/02 06:14:01;;;;;;;4.30;0.68;;;;;;;4.68;93.65;97036.97;4977917;28;20026;-84
2024/01/02 06:16:27;;;;;;;0.60;0.47;;;;;;;4.66;93.37;97033.00;4990560;28;20033;-83
2024/01/02 06:18:53;;;;;;;2.42;0.73;;;;;;;4.69;93.03;97045.69;4971604;28;20466;-82
2024/01/02 06:21:18;;;;;;;0.52;0.40;;;;;;;4.75;93.10;97026.19;4990344;28;20036;-83
2024/01/02 06:23:43;;;;;;;0.95;0.40;;;;;;;4.69;92.74;97038.56;4992095;28;20630;-83
2024/01/02 06:26:09;;;;;;;0.43;0.43;;;;;;;4.67;92.73;97024.81;4977389;28;20615;-83
2024/01/02 06:28:34;;;;;;;1.85;0.50;;;;;;;4.73;92.27;97018.50;4990708;28;20045;-83
2024/01/02 06:31:05;;;;;;;0.77;0.30;;;;;;;4.53;93.04;97007.81;4986645;28;20038;-83
2024/01/02 06:33:31;;;;;;;1.05;0.80;;;;;;;4.72;92.79;97018.78;4958168;28;20085;-83
2024/01/02 06:35:56;;;;;;;0.95;0.43;;;;;;;4.53;92.95;97008.63;4993323;28;20557;-83
2024/01/02 06:38:22;;;;;;;0.35;0.35;;;;;;;4.59;93.08;97000.75;4971791;28;20117;-83
2024/01/02 06:40:47;;;;;;;1.83;0.32;;;;;;;4.33;93.40;97002.41;4950236;28;21592;-83
2024/01/02 06:43:12;;;;;;;0.40;0.40;;;;;;;4.19;95.17;96991.50;4972591;28;20026;-83
2024/01/02 06:45:37;;;;;;;0.43;0.43;;;;;;;4.41;94.55;96986.09;4974384;28;20117;-83
2024/01/02 06:48:03;;;;;;;0.50;0.50;;;;;;;4.23;94.08;96975.94;4974465;28;20099;-83
2024/01/02 06:50:28;;;;;;;0.55;0.50;;;;;;;4.33;94.04;96976.78;4956157;28;20062;-83
2024/01/02 06:52:54;;;;;;;1.67;0.88;;;;;;;4.35;94.07;96968.59;4990707;28;20033;-83
2024/01/02 06:55:19;;;;;;;0.88;0.40;;;;;;;4.17;94.52;96969.81;4953770;28;20038;-83
2024/01/02 06:57:44;;;;;;;1.33;0.63;;;;;;;4.24;94.38;96951.09;4989419;28;20045;-83
2024/01/02 07:00:10;;;;;;;0.50;0.40;;;;;;;4.40;94.48;96948.31;4989447;28;20494;-83
2024/01/02 07:02:36;;;;;;;0.70;0.50;;;;;;;4.20;94.61;96955.31;4970918;28;20031;-83
2024/01/02 07:05:03;;;;;;;0.40;0.40;;;;;;;3.97;94.46;96945.13;4985184;28;20034;-83
2024/01/02 07:07:28;;;;;;;0.32;0.32;;;;;;;4.13;95.34;96929.13;4968661;28;20029;-82
2024/01/02 07:09:53;;;;;;;0.30;0.30;;;;;;;4.09;95.38;96940.44;4971219;28;20026;-83
2024/01/02 07:12:19;;;;;;;0.25;0.25;;;;;;;3.98;95.50;96925.59;4971141;28;20042;-82
2024/01/02 07:14:44;;;;;;;3.40;0.50;;;;;;;4.15;94.58;96913.81;4973538;28;20030;-82
2024/01/02 07:17:10;;;;;;;0.63;0.57;;;;;;;4.20;94.62;96916.50;4983694;28;20382;-83
2024/01/02 07:19:36;;;;;;;0.90;0.30;;;;;;;4.25;94.22;96910.47;4984560;28;20441;-83
2024/01/02 07:22:02;;;;;;;1.02;0.28;;;;;;;4.29;93.78;96901.78;4960398;28;20030;-82
2024/01/02 07:24:27;;;;;;;0.30;0.30;;;;;;;4.00;93.54;96892.63;4971219;28;20556;-83
2024/01/02 07:26:53;;;;;;;0.25;0.25;;;;;;;3.98;95.32;96888.63;4985076;28;20377;-83
2024/01/02 07:29:18;;;;;;;0.43;0.32;;;;;;;4.19;95.28;96890.38;4973661;28;20030;-84
2024/01/02 07:31:44;;;;;;;0.28;0.28;;;;;;;4.05;94.50;96876.81;4990133;28;20453;-84
2024/01/02 07:34:12;;;;;;;2.35;0.63;;;;;;;4.14;94.59;96870.00;4983705;28;20504;-83
2024/01/02 07:36:38;;;;;;;0.47;0.20;;;;;;;4.35;93.91;96861.13;4984929;28;20093;-83
2024/01/02 07:39:04;;;;;;;0.93;0.40;;;;;;;4.40;93.63;96871.72;4989386;28;20432;-82
2024/01/02 07:41:29;;;;;;;0.30;0.30;;;;;;;4.27;93.84;96856.34;4952974;28;20061;-83
2024/01/02 07:43:55;;;;;;;0.20;0.20;;;;;;;4.39;93.40;96870.13;4972523;28;20023;-83
2024/01/02 07:46:20;;;;;;;3.95;0.57;;;;;;;4.02;93.89;96864.13;4990103;28;20033;-83
2024/01/02 07:48:45;;;;;;;1.02;0.73;;;;;;;4.17;94.01;96853.66;4972269;28;20037;-83
2024/01/02 07:51:11;;;;;;;0.70;0.47;;;;;;;4.11;94.71;96833.56;4960588;28;20073;-83
2024/01/02 07:53:36;;;;;;;0.85;0.55;;;;;;;4.30;93.99;96834.69;4971553;28;20089;-83
2024/01/02 07:56:05;;;;;;;0.50;0.50;;;;;;;4.45;93.45;96836.63;4989978;28;20045;-83
2024/01/02 07:58:30;;;;;;;2.20;0.90;;;;;;;4.07;93.75;96840.41;4989074;28;20045;-83
2024/01/02 08:00:55;;;;;;;1.27;0.80;;;;;;;4.26;94.01;96835.50;4994775;28;20049;-84
2024/01/02 08:03:21;;;;;;;1.00;1.00;;;;;;;4.11;93.79;96830.91;4971916;28;20022;-83
2024/01/02 08:05:47;;;;;;;0.77;0.75;;;;;;;4.18;92.97;96835.97;4994661;28;20085;-83
2024/01/02 08:08:12;;;;;;;0.98;0.77;;;;;;;4.29;93.95;96801.44;4996748;28;20050;-83
2024/01/02 08:10:37;;;;;;;1.25;0.40;;;;;;;4.35;93.14;96810.16;4998877;28;20029;-83
2024/01/02 08:13:03;;;;;;;3.50;0.30;;;;;;;4.18;93.79;96809.56;4978075;28;20038;-83
2024/01/02 08:15:30;;;;;;;0.88;0.40;;;;;;;4.31;94.40;96804.63;4994038;28;20112;-83
2024/01/02 08:17:57;;;;;;;1.10;0.75;;;;;;;4.65;93.71;96817.41;4993262;28;20029;-83
2024/01/02 08:20:22;;;;;;;1.45;0.47;;;;;;;4.17;93.17;96787.66;4995680;28;20031;-83
2024/01/02 08:22:48;;;;;;;0.60;0.60;;;;;;;4.47;94.34;96813.38;4976488;28;20035;-83
2024/01/02 08:25:13;;;;;;;0.43;0.43;;;;;;;4.35;94.84;96797.75;4989480;28;20026;-83
2024/01/02 08:27:39;;;;;;;0.60;0.60;;;;;;;4.32;94.76;96790.38;4958882;28;20072;-83
2024/01/02 08:30:05;;;;;;;0.32;0.32;;;;;;;4.14;94.64;96788.19;4994671;28;20499;-84
2024/01/02 08:32:30;;;;;;;2.40;0.70;;;;;;;4.40;95.03;96792.50;4974976;28;20580;-83
2024/01/02 08:34:56;;;;;;;0.95;0.50;;;;;;;4.12;95.57;96769.16;4990126;28;20036;-82
2024/01/02 08:37:21;;;;;;;1.50;0.60;;;;;;;4.20;96.62;96794.25;4957149;28;20419;-82
2024/01/02 08:39:47;;;;;;;0.40;0.40;;;;;;;4.56;95.27;96794.13;4994027;28;20053;-83
2024/01/02 08:42:14;;;;;;;1.92;0.50;;;;;;;4.67;94.70;96791.53;4990157;28;20121;-84
2024/01/02 08:44:40;;;;;;;0.50;0.50;;;;;;;4.47;95.68;96779.84;4957190;28;20041;-83
2024/01/02 08:47:05;;;;;;;0.70;0.52;;;;;;;4.30;96.16;96765.28;4986686;28;20080;-83
2024/01/02 08:49:31;;;;;;;1.58;0.90;;;;;;;4.41;95.76;96765.03;4997494;28;20521;-83
2024/01/02 08:51:56;;;;;;;0.30;0.30;;;;;;;4.37;95.97;96756.03;4969833;28;20038;-83
2024/01/02 08:54:21;;;;;;;0.57;0.57;;;;;;;4.44;96.92;96759.22;4990182;28;20054;-83
2024/01/02 08:56:47;;;;;;;0.68;0.50;;;;;;;4.49;97.07;96756.63;4969763;28;20045;-82
2024/01/02 08:59:12;;;;;;;2.45;0.60;;;;;;;4.82;94.27;96767.75;4956609;28;20026;-83
2024/01/02 09:01:38;;;;;;;0.57;0.57;;;;;;;4.65;94.87;96762.72;4987418;28;20049;-83
2024/01/02 09:04:04;;;;;;;3.33;0.57;;;;;;;4.67;95.20;96750.03;4957810;28;20113;-84
2024/01/02 09:06:29;;;;;;;1.45;0.68;;;;;;;4.65;95.99;96762.72;4983377;28;20034;-83
2024/01/02 09:08:57;;;;;;;0.63;0.60;;;;;;;4.88;95.06;96750.84;4987068;28;20081;-83
2024/01/02 09:11:24;;;;;;;0.45;0.43;;;;;;;5.01;93.28;96751.13;4971192;28;20057;-83
2024/01/02 09:13:49;;;;;;;1.52;1.05;;;;;;;4.89;94.35;96734.72;4978497;28;20583;-83
2024/01/02 09:16:15;;;;;;;1.20;1.00;;;;;;;5.12;93.43;96743.97;4956090;28;20114;-83
2024/01/02 09:18:41;;;;;;;2.80;1.83;;;;;;;4.98;94.26;96745.59;4987317;28;20121;-83
2024/01/02 09:21:06;;;;;;;5.20;2.95;;;;;;;5.09;93.60;96750.59;4960679;28;20062;-83
2024/01/02 09:23:34;;;;;;;5.45;3.75;;;;;;;5.10;93.75;96738.97;4990426;28;20386;-83
2024/01/02 09:26:03;;;;;;;4.28;2.92;;;;;;;5.15;93.90;96746.91;4993312;28;20050;-82
2024/01/02 09:28:30;;;;;;;6.43;3.03;;;;;;;4.98;95.24;96742.94;4960418;28;20026;-83
2024/01/02 09:30:56;;;;;;;3.58;2.58;;;;;;;5.12;94.88;96736.06;4987247;28;20037;-83
2024/01/02 09:33:23;;;;;;;3.03;2.10;;;;;;;5.03;94.29;96733.16;4974092;28;20031;-83
2024/01/02 09:35:48;;;;;;;2.33;2.05;;;;;;;5.08;95.18;96735.00;4992171;28;20113;-83
2024/01/02 09:38:15;;;;;;;2.90;1.27;;;;;;;5.07;96.20;96744.78;4957322;28;20529;-83
2024/01/02 09:41:01;;;;;;;2.45;0.85;;;;;;;5.15;97.06;96746.09;4986676;28;20049;-83
2024/01/02 09:43:45;;;;;;;0.90;0.90;;;;;;;5.23;96.65;96738.44;4978221;28;20045;-83
2024/01/02 09:46:38;;;;;;;1.30;0.80;;;;;;;5.29;96.97;96763.81;4988018;28;20038;-84
2024/01/02 09:49:24;;;;;;;0.63;0.30;;;;;;;5.21;98.32;96751.13;4981091;28;20018;-83
2024/01/02 09:52:07;;;;;;;0.53;0.53;;;;;;;5.28;98.81;96753.50;5000258;28;20022;-84
2024/01/02 09:54:50;;;;;;;0.95;0.50;;;;;;;5.31;100.00;96745.03;4987970;28;20342;-84
2024/01/02 09:57:56;;;;;;;0.82;0.38;;;;;;;5.31;100.00;96737.88;4996511;28;20038;-84
2024/01/02 10:00:39;;;;;;;0.88;0.68;;;;;;;5.39;100.00;96746.34;4978026;28;20387;-84
2024/01/02 10:03:29;;;;;;;0.50;0.50;;;;;;;5.43;100.00;96742.09;4996358;28;20426;-84
2024/01/02 10:06:26;;;;;;;0.40;0.40;;;;;;;5.46;100.00;96738.94;4991104;28;20644;-83
2024/01/02 10:09:26;;;;;;;0.30;0.30;;;;;;;5.46;100.00;96745.00;4984819;28;20099;-83
2024/01/02 10:12:14;;;;;;;1.45;0.30;;;;;;;5.41;100.00;96723.88;4987211;28;20026;-83
2024/01/02 10:14:55;;;;;;;0.55;0.40;;;;;;;5.54;100.00;96731.25;4986697;28;20125;-83
2024/01/02 10:17:24;;;;;;;2.35;0.50;;;;;;;5.56;100.00;96739.72;4986829;28;20557;-83
2024/01/02 10:19:58;;;;;;;0.68;0.38;;;;;;;5.61;100.00;96731.78;4989178;28;20037;-83
2024/01/02 10:22:28;;;;;;;0.30;0.30;;;;;;;5.58;100.00;96721.72;4993024;28;20499;-84
2024/01/02 10:25:08;;;;;;;0.30;0.30;;;;;;;5.63;100.00;96720.91;4977520;28;20018;-83
2024/01/02 10:27:58;;;;;;;0.20;0.20;;;;;;;5.70;100.00;96735.44;4983997;28;20033;-83
2024/01/02 10:30:32;;;;;;;0.45;0.45;;;;;;;5.75;100.00;96731.97;4981445;28;20077;-83
2024/01/02 10:33:22;;;;;;;1.02;0.88;;;;;;;5.77;100.00;96745.72;4987557;28;20172;-83
2024/01/02 10:35:56;;;;;;;0.60;0.60;;;;;;;5.75;100.00;96730.13;4988571;28;20426;-83
2024/01/02 10:38:47;;;;;;;0.25;0.25;;;;;;;5.82;100.00;96733.28;4989980;28;20456;-83
2024/01/02 10:41:40;;;;;;;0.40;0.40;;;;;;;5.87;100.00;96741.25;4986052;28;20029;-83
2024/01/02 10:44:36;;;;;;;0.63;0.57;;;;;;;5.92;100.00;96738.56;4979926;28;22373;-83
2024/01/02 10:47:27;;;;;;;0.38;0.38;;;;;;;5.87;100.00;96735.16;4979219;28;20023;-84
2024/01/02 10:49:59;;;;;;;0.55;0.55;;;;;;;5.90;100.00;96737.25;4994163;28;20022;-84
2024/01/02 10:52:34;;;;;;;0.73;0.73;;;;;;;5.96;100.00;96736.19;4993304;28;20029;-83
2024/01/02 10:55:05;;;;;;;0.40;0.40;;;;;;;6.02;100.00;96727.16;4983404;28;20061;-84
2024/01/02 10:57:55;;;;;;;0.57;0.57;;;;;;;5.99;100.00;96744.38;4988969;28;20030;-84
2024/01/02 11:00:24;;;;;;;0.93;0.75;;;;;;;6.02;100.00;96741.19;4991133;28;20066;-83
2024/01/02 11:03:03;;;;;;;0.70;0.60;;;;;;;6.01;100.00;96725.56;4984686;28;20023;-84
2024/01/02 11:05:34;;;;;;;0.68;0.68;;;;;;;6.10;100.00;96739.81;4975794;28;20393;-83
2024/01/02 11:08:06;;;;;;;0.50;0.45;;;;;;;6.17;100.00;96743.00;4988873;28;20663;-83
2024/01/02 11:10:41;;;;;;;0.70;0.70;;;;;;;6.17;100.00;96742.19;4989745;28;20065;-84
2024/01/02 11:13:09;;;;;;;0.50;0.50;;;;;;;6.24;100.00;96738.19;4985954;28;20035;-83
2024/01/02 11:15:37;;;;;;;0.50;0.50;;;;;;;6.28;100.00;96741.06;4947031;28;20965;-84
2024/01/02 11:18:05;;;;;;;0.45;0.45;;;;;;;6.22;100.00;96727.09;4989400;28;20030;-83
2024/01/02 11:20:39;;;;;;;1.27;0.50;;;;;;;6.29;100.00;96734.72;4984109;28;20030;-84
2024/01/02 11:23:15;;;;;;;0.70;0.70;;;;;;;6.35;100.00;96739.72;4981047;28;20123;-84
2024/01/02 11:25:53;;;;;;;0.50;0.50;;;;;;;6.34;100.00;96734.69;4982118;28;20041;-84
2024/01/02 11:28:21;;;;;;;0.47;0.47;;;;;;;6.39;100.00;96734.66;4977917;28;20041;-84
2024/01/02 11:30:47;;;;;;;0.50;0.50;;;;;;;6.43;100.00;96735.69;4983489;28;20018;-84
2024/01/02 11:33:34;;;;;;;0.40;0.40;;;;;;;6.47;100.00;96720.84;4982424;28;20037;-84
2024/01/02 11:36:02;;;;;;;;;;;;;;;6.50;100.00;96721.09;4980241;28;20082;-84
2024/01/02 11:38:33;;;;;;;0.60;0.60;;;;;;;6.54;100.00;96718.69;4977988;28;19914;-84
2024/01/02 11:41:20;;;;;;;0.93;0.85;;;;;;;6.53;100.00;96704.63;4976258;28;20026;-83